Skip Navigation Links
NOAA logo - Click to go to the NOAA homepage
NOAA's National Weather Service
Alaska Aviation Weather Unit
  NWS logo - Click to go to the NWS homepage
Left Navbar Graphic     15 AKDT = 23 GMT

   
NOAA is celebrating 200 years of science, service, and stewardship. Visit the NOAA 200th celebration Web site to learn more.
USA.gov is the U.S. Government's official Web portal to all Federal, state and local government Web resources and services.
Facebook
NWS on Facebook

Important Change Regarding the AAWU Web Presence

 

Over the last several months, the AAWU has been working to navigate its webpages to a nationally supported server. Security, as well as other needs, have necessitated the change.  We have been given an extension for the site changeover while we diligently work at addressing feedback received. As of July 14, 2017, aawu.arh.noaa.gov will be discontinued. The new AAWU web address is weather.gov/aawu. It is now live and will run in-parallel with the old site until it is discontinued on July 14, 2017. Please continue to send any feedback or questions regarding the new webpages to nws.ar.aawu.webauthors@noaa.gov.  Thank you for your patience during this time of transition.
AAWU Home :: Display TAF Add Bookmark
TAF PASN 192329Z 2000/2024  09008KT P6SM SCT025 BKN050
      TEMPO 2000/2004 13006KT BKN025 BKN035
     FM200400 05013KT P6SM BKN040
     FM201500 01018G28KT P6SM -SHSN SCT030 BKN050=

8264
FTAK31 PANC 192329
TAFADU
TAF
METAR PASN 191753Z AUTO 00000KT 10SM CLR M03/M03 A2974 RMK AO2
 SLP072 60000 T10281033 10028 21033 56018 TSNO=

METAR PASN 191853Z AUTO 03003KT 10SM CLR M03/M03 A2971 RMK AO2 SLP060
     T10281033 TSNO=

METAR PASN 191953Z AUTO 04004KT 10SM CLR M01/M02 A2968 RMK AO2 SLP052
     T10061017 TSNO=

METAR PASN 192053Z AUTO 07003KT 10SM FEW030 SCT036 04/02 A2966 RMK AO2
     SLP044 T00390017 56028 TSNO=

METAR PASN 192153Z AUTO 13005KT 10SM FEW047 04/M01 A2963 RMK AO2 SLP035
     T00391006 TSNO=

METAR PASN 192253Z AUTO 15006KT 10SM SCT031 BKN044 05/01 A2960 RMK AO2
     SLP025 T00500006 TSNO=

PASN 192307Z AUTO 14006KT 10SM BKN029 BKN035 OVC044 05/00 A2960=

SPECI PASN 192332Z AUTO 15006KT 10SM FEW029 BKN036 OVC047 04/M02
 A2958 RMK AO2 T00441017 TSNO=


NOAA's National Weather Service
Alaska Aviation Weather Unit
6930 Sand Lake Road
Anchorage, AK 99502-1845
Disclaimer
Credits
Glossary
Privacy Policy
About Us
Career Opportunities
Contact AAWU Internet Services Site last modified: April, 17th 2012